createdAt,value
2022-11-30T00:01:31.905Z,67.89
2022-11-30T00:04:00.426Z,68.01
2022-11-30T00:06:28.795Z,68.11
2022-11-30T00:08:57.960Z,68.01
2022-11-30T00:11:27.882Z,67.80
2022-11-30T00:13:56.219Z,67.74
2022-11-30T00:16:24.606Z,67.71
2022-11-30T00:18:53.322Z,67.87
2022-11-30T00:21:21.855Z,67.77
2022-11-30T00:23:50.381Z,67.83
2022-11-30T00:26:21.777Z,67.60
2022-11-30T00:28:50.247Z,67.61
2022-11-30T00:31:19.319Z,67.73
2022-11-30T00:33:47.936Z,67.73
2022-11-30T00:36:18.338Z,67.73
2022-11-30T00:38:47.093Z,67.77
2022-11-30T00:41:15.865Z,67.77
2022-11-30T00:43:45.045Z,67.64
2022-11-30T00:46:13.399Z,67.72
2022-11-30T00:48:41.977Z,67.65
2022-11-30T00:51:11.744Z,67.62
2022-11-30T00:53:41.249Z,67.72
2022-11-30T00:56:10.285Z,67.72
2022-11-30T00:58:38.750Z,67.71
2022-11-30T01:01:07.746Z,67.64
2022-11-30T01:03:37.484Z,67.65
2022-11-30T01:06:07.582Z,67.68
2022-11-30T01:08:36.138Z,67.54
2022-11-30T01:11:12.548Z,67.58
2022-11-30T01:13:40.990Z,67.33
2022-11-30T01:16:11.367Z,67.25
2022-11-30T01:18:39.771Z,67.19
2022-11-30T01:21:10.366Z,67.03
2022-11-30T01:23:38.865Z,67.07
2022-11-30T01:26:08.039Z,67.02
2022-11-30T01:28:36.651Z,67.06
2022-11-30T01:31:07.007Z,66.90
2022-11-30T01:33:36.074Z,66.92
2022-11-30T01:36:07.466Z,67.05
2022-11-30T01:38:37.809Z,67.15
2022-11-30T01:41:08.355Z,67.12
2022-11-30T01:43:42.508Z,66.91
2022-11-30T01:46:38.493Z,66.92
2022-11-30T01:49:15.529Z,66.99
2022-11-30T01:51:47.333Z,67.07
2022-11-30T01:54:19.344Z,66.80
2022-11-30T01:56:50.643Z,66.70
2022-11-30T01:59:20.900Z,66.69
2022-11-30T02:01:49.735Z,66.85
2022-11-30T02:04:24.445Z,66.74
2022-11-30T02:06:52.895Z,66.73
2022-11-30T02:09:23.134Z,66.75
2022-11-30T02:11:51.470Z,66.94
2022-11-30T02:14:30.272Z,66.82
2022-11-30T02:17:08.159Z,67.02
2022-11-30T02:20:20.969Z,66.88
2022-11-30T02:23:07.625Z,66.72
2022-11-30T02:25:43.262Z,66.57
2022-11-30T02:28:55.801Z,66.44
2022-11-30T02:31:30.161Z,66.43
2022-11-30T02:34:00.946Z,66.36
2022-11-30T02:36:31.683Z,66.39
2022-11-30T02:39:00.638Z,66.51
2022-11-30T02:41:38.157Z,66.39
2022-11-30T02:44:09.454Z,66.29
2022-11-30T02:46:46.927Z,66.32
2022-11-30T02:49:25.691Z,66.35
2022-11-30T02:51:55.005Z,66.40
2022-11-30T02:54:24.097Z,66.35
2022-11-30T02:56:52.396Z,66.58
2022-11-30T02:59:21.392Z,66.53
2022-11-30T03:01:49.672Z,66.42
2022-11-30T03:04:18.641Z,66.33
2022-11-30T03:06:49.530Z,66.52
2022-11-30T03:09:17.769Z,66.21
2022-11-30T03:11:46.087Z,66.42
2022-11-30T03:14:14.732Z,66.68
2022-11-30T03:16:43.853Z,66.53
2022-11-30T03:19:13.503Z,66.38
2022-11-30T03:21:41.788Z,66.41
2022-11-30T03:24:10.079Z,66.46
2022-11-30T03:26:38.390Z,66.46
2022-11-30T03:29:06.735Z,66.79
2022-11-30T03:31:35.326Z,66.98
2022-11-30T03:34:05.046Z,67.74
2022-11-30T03:36:33.392Z,67.19
2022-11-30T03:39:02.961Z,67.42
2022-11-30T03:41:31.220Z,67.42
2022-11-30T03:44:00.185Z,67.67
2022-11-30T03:46:28.513Z,67.62
2022-11-30T03:48:56.842Z,67.49
2022-11-30T03:51:25.118Z,67.69
2022-11-30T03:53:53.487Z,67.82
2022-11-30T03:56:21.919Z,67.73
2022-11-30T03:58:50.790Z,67.89
2022-11-30T04:01:22.915Z,67.97
2022-11-30T04:03:52.088Z,67.77
2022-11-30T04:06:21.945Z,67.77
2022-11-30T04:08:50.257Z,67.84
2022-11-30T04:11:19.203Z,67.99
2022-11-30T04:13:47.786Z,68.12
2022-11-30T04:16:16.150Z,67.90
2022-11-30T04:18:44.524Z,67.76
2022-11-30T04:21:12.833Z,67.59
2022-11-30T04:23:41.203Z,67.69
2022-11-30T04:26:12.768Z,67.63
2022-11-30T04:28:43.124Z,67.78
2022-11-30T04:31:11.605Z,67.74
2022-11-30T04:33:40.045Z,67.74
2022-11-30T04:36:18.295Z,67.62
2022-11-30T04:38:46.896Z,67.80
2022-11-30T04:41:15.615Z,67.90
2022-11-30T04:43:43.960Z,67.94
2022-11-30T04:46:12.524Z,68.19
2022-11-30T04:48:41.168Z,68.14
2022-11-30T04:51:09.498Z,67.81
2022-11-30T04:53:38.768Z,67.86
2022-11-30T04:56:08.913Z,67.90
2022-11-30T04:58:38.463Z,67.77
2022-11-30T05:01:07.661Z,67.72
2022-11-30T05:03:36.569Z,67.93
2022-11-30T05:06:05.842Z,68.08
2022-11-30T05:08:34.885Z,68.34
2022-11-30T05:11:03.339Z,68.22
2022-11-30T05:13:31.611Z,67.89
2022-11-30T05:16:00.560Z,67.83
2022-11-30T05:18:32.036Z,67.79
2022-11-30T05:21:00.831Z,67.72
2022-11-30T05:23:29.378Z,67.93
2022-11-30T05:25:57.651Z,68.13
2022-11-30T05:28:25.933Z,68.17
2022-11-30T05:30:54.270Z,68.17
2022-11-30T05:33:22.519Z,68.19
2022-11-30T05:35:51.743Z,67.88
2022-11-30T05:38:22.335Z,68.07
2022-11-30T05:40:52.449Z,67.96
2022-11-30T05:43:20.771Z,67.90
2022-11-30T05:45:54.493Z,68.06
2022-11-30T05:48:22.817Z,67.97
2022-11-30T05:50:51.106Z,68.06
2022-11-30T05:53:21.499Z,67.96
2022-11-30T05:55:49.938Z,68.15
2022-11-30T05:58:20.144Z,68.02
2022-11-30T06:00:52.395Z,67.89
2022-11-30T06:03:21.139Z,67.54
2022-11-30T06:05:53.632Z,67.99
2022-11-30T06:08:23.033Z,67.99
2022-11-30T06:10:51.858Z,68.30
2022-11-30T06:13:23.572Z,68.05
2022-11-30T06:15:58.987Z,68.10
2022-11-30T06:18:28.277Z,68.06
2022-11-30T06:21:01.095Z,68.18
2022-11-30T06:23:29.731Z,68.51
2022-11-30T06:25:58.434Z,68.21
2022-11-30T06:28:26.891Z,68.39
2022-11-30T06:30:58.869Z,68.44
2022-11-30T06:33:27.954Z,68.43
2022-11-30T06:35:59.551Z,68.10
2022-11-30T06:38:28.450Z,68.33
2022-11-30T06:41:04.170Z,68.70
2022-11-30T06:43:38.819Z,68.53
2022-11-30T06:46:08.402Z,68.62
2022-11-30T06:48:37.424Z,68.27
2022-11-30T06:51:11.423Z,68.25
2022-11-30T06:53:42.129Z,68.01
2022-11-30T06:56:11.553Z,68.15
2022-11-30T06:58:40.693Z,68.13
2022-11-30T07:01:10.916Z,68.10
2022-11-30T07:03:40.541Z,68.12
2022-11-30T07:06:11.168Z,68.13
2022-11-30T07:08:40.519Z,68.23
2022-11-30T07:11:10.566Z,68.28
2022-11-30T07:13:38.900Z,68.17
2022-11-30T07:16:10.788Z,68.07
2022-11-30T07:18:39.327Z,68.08
2022-11-30T07:21:07.820Z,68.05
2022-11-30T07:23:56.940Z,68.24
2022-11-30T07:26:25.825Z,68.06
2022-11-30T07:28:57.348Z,68.57
2022-11-30T07:31:27.260Z,68.32
2022-11-30T07:33:56.402Z,68.18
2022-11-30T07:36:26.895Z,68.04
2022-11-30T07:38:55.617Z,68.31
2022-11-30T07:41:24.191Z,68.47
2022-11-30T07:43:52.509Z,68.23
2022-11-30T07:46:21.234Z,67.94
2022-11-30T07:48:49.569Z,68.12
2022-11-30T07:51:20.001Z,68.06
2022-11-30T07:53:48.841Z,67.71
2022-11-30T07:56:19.271Z,67.76
2022-11-30T07:58:48.451Z,68.24
2022-11-30T08:01:18.735Z,68.40
2022-11-30T08:03:47.106Z,68.33
2022-11-30T08:06:19.216Z,67.98
2022-11-30T08:08:48.846Z,68.27
2022-11-30T08:11:19.290Z,68.17
2022-11-30T08:13:48.082Z,68.09
2022-11-30T08:16:18.556Z,68.09
2022-11-30T08:18:47.244Z,68.16
2022-11-30T08:21:18.747Z,68.09
2022-11-30T08:23:48.750Z,68.09
2022-11-30T08:26:19.186Z,68.12
2022-11-30T08:28:49.312Z,67.91
2022-11-30T08:31:19.901Z,68.07
2022-11-30T08:33:49.219Z,68.14
2022-11-30T08:36:20.163Z,68.16
2022-11-30T08:38:49.493Z,68.14
2022-11-30T08:41:21.129Z,68.11
2022-11-30T08:43:50.772Z,68.07
2022-11-30T08:46:49.761Z,68.27
2022-11-30T08:49:26.042Z,68.11
2022-11-30T08:54:45.883Z,68.19
2022-11-30T08:57:15.582Z,68.31
2022-11-30T08:59:44.243Z,68.29
2022-11-30T09:02:16.737Z,68.42
2022-11-30T09:04:46.851Z,68.35
2022-11-30T09:07:15.204Z,68.27
2022-11-30T09:09:43.567Z,68.05
2022-11-30T09:12:12.062Z,68.02
2022-11-30T09:14:40.943Z,68.12
2022-11-30T09:17:09.706Z,68.08
2022-11-30T09:19:38.032Z,67.67
2022-11-30T09:22:06.466Z,67.53
2022-11-30T09:24:34.906Z,67.45
2022-11-30T09:27:03.371Z,67.59
2022-11-30T09:29:31.620Z,67.73
2022-11-30T09:32:00.015Z,67.78
2022-11-30T09:34:28.637Z,68.04
2022-11-30T09:36:56.980Z,68.24
2022-11-30T09:39:25.505Z,68.44
2022-11-30T09:42:17.454Z,68.14
2022-11-30T09:44:57.972Z,67.92
2022-11-30T09:47:38.876Z,67.68
2022-11-30T09:50:13.329Z,67.44
2022-11-30T09:52:45.492Z,67.45
2022-11-30T09:55:22.081Z,67.53
2022-11-30T09:57:54.832Z,67.81
2022-11-30T10:00:24.936Z,67.80
2022-11-30T10:02:55.659Z,68.83
2022-11-30T10:05:28.851Z,68.44
2022-11-30T10:08:19.689Z,68.34
2022-11-30T10:10:58.258Z,68.80
2022-11-30T10:13:45.480Z,68.75
2022-11-30T10:16:27.124Z,68.13
2022-11-30T10:19:02.668Z,68.02
2022-11-30T10:21:47.522Z,68.42
2022-11-30T10:24:28.367Z,68.24
2022-11-30T10:26:58.088Z,68.30
2022-11-30T10:29:31.722Z,68.32
2022-11-30T10:32:10.857Z,68.37
2022-11-30T10:34:42.131Z,68.28
2022-11-30T10:37:16.556Z,68.09
2022-11-30T10:39:52.613Z,67.94
2022-11-30T10:42:25.667Z,68.30
2022-11-30T10:45:00.883Z,68.05
2022-11-30T10:47:36.145Z,67.74
2022-11-30T10:50:06.073Z,67.67
2022-11-30T10:52:41.641Z,67.92
2022-11-30T10:55:16.285Z,67.98
2022-11-30T10:57:47.769Z,67.88
2022-11-30T11:00:17.769Z,67.85
2022-11-30T11:02:47.802Z,67.87
2022-11-30T11:05:19.795Z,67.75
2022-11-30T11:07:54.852Z,67.76
2022-11-30T11:10:29.871Z,67.95
2022-11-30T11:12:58.696Z,67.63
2022-11-30T11:15:29.650Z,67.40
2022-11-30T11:18:23.318Z,66.77
2022-11-30T11:21:05.891Z,67.05
2022-11-30T11:23:37.739Z,67.21
2022-11-30T11:26:15.486Z,67.42
2022-11-30T11:28:45.892Z,67.59
2022-11-30T11:31:25.321Z,67.52
2022-11-30T11:33:54.486Z,67.96
2022-11-30T11:36:27.772Z,67.75
2022-11-30T11:38:57.018Z,67.67
2022-11-30T11:41:28.356Z,67.49
2022-11-30T11:44:01.699Z,67.46
2022-11-30T11:46:32.022Z,67.68
2022-11-30T11:49:04.138Z,67.62
2022-11-30T11:51:34.199Z,67.62
2022-11-30T11:54:14.990Z,67.65
2022-11-30T11:56:44.051Z,67.73
2022-11-30T11:59:17.552Z,67.87
2022-11-30T12:01:57.110Z,67.98
2022-11-30T12:04:40.632Z,67.45
2022-11-30T12:07:19.011Z,67.56
2022-11-30T12:09:57.827Z,67.61
2022-11-30T12:12:27.336Z,67.56
2022-11-30T12:14:56.854Z,67.54
2022-11-30T12:17:38.957Z,67.49
2022-11-30T12:20:18.968Z,67.65
2022-11-30T12:23:04.428Z,67.61
2022-11-30T12:25:38.579Z,67.64
2022-11-30T12:28:19.567Z,67.67
2022-11-30T12:30:59.963Z,67.72
2022-11-30T12:33:41.576Z,67.52
2022-11-30T12:36:19.194Z,67.16
2022-11-30T12:38:54.876Z,67.17
2022-11-30T12:41:34.769Z,67.43
2022-11-30T12:44:16.428Z,67.57
2022-11-30T12:46:57.833Z,67.40
2022-11-30T12:52:40.014Z,67.77
2022-11-30T12:55:20.305Z,67.99
2022-11-30T12:57:55.633Z,68.14
2022-11-30T13:00:25.217Z,68.04
2022-11-30T13:03:14.643Z,68.10
2022-11-30T13:05:47.452Z,67.80
2022-11-30T13:08:21.802Z,68.04
2022-11-30T13:10:55.276Z,68.02
2022-11-30T13:13:28.621Z,67.98
2022-11-30T13:15:58.670Z,67.95
2022-11-30T13:18:27.678Z,67.88
2022-11-30T13:21:06.575Z,67.98
2022-11-30T13:23:38.872Z,67.86
2022-11-30T13:26:18.266Z,67.72
2022-11-30T13:29:00.491Z,67.65
2022-11-30T13:31:33.680Z,68.17
2022-11-30T13:34:02.145Z,68.32
2022-11-30T13:36:42.865Z,68.16
2022-11-30T13:39:23.802Z,67.94
2022-11-30T13:42:24.419Z,67.93
2022-11-30T13:44:53.011Z,68.08
2022-11-30T13:47:30.024Z,67.93
2022-11-30T13:50:01.448Z,67.70
2022-11-30T13:53:09.412Z,67.91
2022-11-30T13:55:49.854Z,67.80
2022-11-30T13:58:19.383Z,67.67
2022-11-30T14:04:44.960Z,67.88
2022-11-30T14:07:34.351Z,68.03
2022-11-30T14:10:03.471Z,68.18
2022-11-30T14:12:58.832Z,68.40
2022-11-30T14:15:53.795Z,68.47
2022-11-30T14:18:41.155Z,68.34
2022-11-30T14:21:26.524Z,68.08
2022-11-30T14:23:58.726Z,68.21
2022-11-30T14:26:34.602Z,67.93
2022-11-30T14:29:16.294Z,68.07
2022-11-30T14:31:55.577Z,67.73
2022-11-30T14:34:27.825Z,67.80
2022-11-30T14:37:01.056Z,68.04
2022-11-30T14:39:34.731Z,67.99
2022-11-30T14:42:05.918Z,67.97
2022-11-30T14:44:39.221Z,68.06
2022-11-30T14:47:15.748Z,68.00
2022-11-30T14:49:51.594Z,67.96
2022-11-30T14:52:41.768Z,67.95
2022-11-30T14:55:20.498Z,68.01
2022-11-30T14:57:56.687Z,68.19
2022-11-30T15:00:25.579Z,68.14
2022-11-30T15:02:54.445Z,68.15
2022-11-30T15:05:26.695Z,68.04
2022-11-30T15:07:55.513Z,67.86
2022-11-30T15:10:31.042Z,67.94
2022-11-30T15:13:01.059Z,67.81
2022-11-30T15:15:30.698Z,67.83
2022-11-30T15:18:07.815Z,67.56
2022-11-30T15:20:42.663Z,67.29
2022-11-30T15:23:12.453Z,67.30
2022-11-30T15:25:45.199Z,67.55
2022-11-30T15:28:18.351Z,67.69
2022-11-30T15:30:48.765Z,67.70
2022-11-30T15:33:19.514Z,67.77
2022-11-30T15:36:15.932Z,67.80
2022-11-30T15:38:39.701Z,67.73
2022-11-30T15:41:17.056Z,67.79
2022-11-30T15:43:50.490Z,67.92
2022-11-30T15:46:29.680Z,68.06
2022-11-30T15:49:07.335Z,68.11
2022-11-30T15:51:40.442Z,67.79
2022-11-30T15:54:10.462Z,67.92
2022-11-30T15:56:39.205Z,67.95
2022-11-30T15:59:21.753Z,67.92
2022-11-30T16:02:01.365Z,67.91
2022-11-30T16:05:13.839Z,67.77
2022-11-30T16:07:50.455Z,67.69
2022-11-30T16:10:21.480Z,67.76
2022-11-30T16:12:51.344Z,67.82
2022-11-30T16:15:22.711Z,67.40
2022-11-30T16:17:52.611Z,67.28
2022-11-30T16:20:21.256Z,67.48
2022-11-30T16:22:49.675Z,67.59
2022-11-30T16:25:20.949Z,67.39
2022-11-30T16:27:50.070Z,67.34
2022-11-30T16:30:22.337Z,67.79
2022-11-30T16:32:50.951Z,67.56
2022-11-30T16:35:23.590Z,67.62
2022-11-30T16:37:52.315Z,67.53
2022-11-30T16:40:24.099Z,67.52
2022-11-30T16:42:53.082Z,67.72
2022-11-30T16:45:23.250Z,68.30
2022-11-30T16:47:52.555Z,68.21
2022-11-30T16:50:20.912Z,67.67
2022-11-30T16:52:49.555Z,67.30
2022-11-30T16:55:20.059Z,67.52
2022-11-30T16:57:49.208Z,67.65
2022-11-30T17:00:20.002Z,67.77
2022-11-30T17:02:56.491Z,67.31
2022-11-30T17:05:25.935Z,67.86
2022-11-30T17:07:54.901Z,67.69
2022-11-30T17:10:24.034Z,67.65
2022-11-30T17:12:52.382Z,67.78
2022-11-30T17:15:22.854Z,67.64
2022-11-30T17:17:51.402Z,67.51
2022-11-30T17:20:19.738Z,67.88
2022-11-30T17:22:48.121Z,67.34
2022-11-30T17:25:18.410Z,67.41
2022-11-30T17:27:48.083Z,67.41
2022-11-30T17:30:19.269Z,67.25
2022-11-30T17:32:48.619Z,67.20
2022-11-30T17:35:18.066Z,67.32
2022-11-30T17:37:46.547Z,67.26
2022-11-30T17:40:15.483Z,67.26
2022-11-30T17:42:44.117Z,67.43
2022-11-30T17:45:12.623Z,67.12
2022-11-30T17:47:40.978Z,66.93
2022-11-30T17:50:10.394Z,67.00
2022-11-30T17:52:38.882Z,66.92
2022-11-30T17:55:09.020Z,66.76
2022-11-30T17:57:38.628Z,66.58
2022-11-30T18:00:09.036Z,66.63
2022-11-30T18:02:37.606Z,66.28
2022-11-30T18:05:07.768Z,66.31
2022-11-30T18:07:36.566Z,65.94
2022-11-30T18:10:06.956Z,65.87
2022-11-30T18:13:01.446Z,65.71
2022-11-30T18:15:29.987Z,65.79
2022-11-30T18:18:00.909Z,66.21
2022-11-30T18:20:30.532Z,66.00
2022-11-30T18:22:59.114Z,65.84
2022-11-30T18:25:29.353Z,65.98
2022-11-30T18:27:57.839Z,65.85
2022-11-30T18:30:26.679Z,66.17
2022-11-30T18:33:20.659Z,66.16
2022-11-30T18:35:51.378Z,66.26
2022-11-30T18:38:21.444Z,65.87
2022-11-30T18:40:51.596Z,65.55
2022-11-30T18:43:21.959Z,65.46
2022-11-30T18:45:51.940Z,65.72
2022-11-30T18:51:18.555Z,65.94
2022-11-30T18:53:47.442Z,65.73
2022-11-30T18:56:17.690Z,65.65
2022-11-30T18:58:47.204Z,65.71
2022-11-30T19:01:18.897Z,65.91
2022-11-30T19:03:52.093Z,65.79
2022-11-30T19:06:21.406Z,65.56
2022-11-30T19:08:54.143Z,65.58
2022-11-30T19:11:22.810Z,65.71
2022-11-30T19:13:54.633Z,65.79
2022-11-30T19:16:24.506Z,65.99
2022-11-30T19:18:53.282Z,65.94
2022-11-30T19:21:23.004Z,66.13
2022-11-30T19:23:53.813Z,66.07
2022-11-30T19:26:23.256Z,66.26
2022-11-30T19:28:54.245Z,65.99
2022-11-30T19:31:24.189Z,65.99
2022-11-30T19:33:54.921Z,66.02
2022-11-30T19:36:25.990Z,66.33
2022-11-30T19:38:56.130Z,66.38
2022-11-30T19:41:24.746Z,66.68
2022-11-30T19:43:59.755Z,66.87
2022-11-30T19:46:32.289Z,66.57
2022-11-30T19:49:01.718Z,66.78
2022-11-30T19:51:31.745Z,66.48
2022-11-30T19:54:00.859Z,66.41
2022-11-30T19:56:30.924Z,66.41
2022-11-30T19:59:04.501Z,66.15
2022-11-30T20:01:34.731Z,65.97
2022-11-30T20:04:04.087Z,65.93
2022-11-30T20:06:35.435Z,65.99
2022-11-30T20:09:06.796Z,66.15
2022-11-30T20:11:35.529Z,66.23
2022-11-30T20:14:04.858Z,65.93
2022-11-30T20:16:33.320Z,65.82
2022-11-30T20:19:02.563Z,65.67
2022-11-30T20:21:34.368Z,65.52
2022-11-30T20:24:05.390Z,65.44
2022-11-30T20:26:36.113Z,65.40
2022-11-30T20:29:06.320Z,65.32
2022-11-30T20:31:36.648Z,66.21
2022-11-30T20:34:07.397Z,66.44
2022-11-30T20:36:36.551Z,66.37
2022-11-30T20:39:05.773Z,66.93
2022-11-30T20:41:34.442Z,66.52
2022-11-30T20:44:02.856Z,66.31
2022-11-30T20:46:33.853Z,66.36
2022-11-30T20:49:04.212Z,66.45
2022-11-30T20:51:34.346Z,66.42
2022-11-30T20:54:05.935Z,66.20
2022-11-30T20:56:35.983Z,66.04
2022-11-30T20:59:06.403Z,66.11
2022-11-30T21:01:35.034Z,66.14
2022-11-30T21:04:03.755Z,66.79
2022-11-30T21:06:32.520Z,66.94
2022-11-30T21:09:01.131Z,66.72
2022-11-30T21:11:30.808Z,66.51
2022-11-30T21:13:59.229Z,66.37
2022-11-30T21:16:29.283Z,66.18
2022-11-30T21:18:59.415Z,66.14
2022-11-30T21:21:31.705Z,66.12
2022-11-30T21:24:02.477Z,65.90
2022-11-30T21:26:33.080Z,65.69
2022-11-30T21:29:03.873Z,65.58
2022-11-30T21:31:32.304Z,65.69
2022-11-30T21:34:00.852Z,65.84
2022-11-30T21:36:29.322Z,65.91
2022-11-30T21:39:05.040Z,66.01
2022-11-30T21:41:36.385Z,65.75
2022-11-30T21:44:05.577Z,65.69
2022-11-30T21:46:34.275Z,65.66
2022-11-30T21:49:03.576Z,65.54
2022-11-30T21:51:32.202Z,65.64
2022-11-30T21:54:02.057Z,65.56
2022-11-30T21:56:32.350Z,65.39
2022-11-30T21:59:01.127Z,65.50
2022-11-30T22:01:31.416Z,65.41
2022-11-30T22:04:01.319Z,65.26
2022-11-30T22:06:31.306Z,65.39
2022-11-30T22:09:06.905Z,65.45
2022-11-30T22:11:36.739Z,65.15
2022-11-30T22:14:05.627Z,64.90
2022-11-30T22:16:36.239Z,65.37
2022-11-30T22:19:06.643Z,65.33
2022-11-30T22:21:35.411Z,65.16
2022-11-30T22:24:05.626Z,64.90
2022-11-30T22:26:35.472Z,64.91
2022-11-30T22:29:05.627Z,65.13
2022-11-30T22:31:35.460Z,65.21
2022-11-30T22:34:04.225Z,64.96
2022-11-30T22:36:33.867Z,65.00
2022-11-30T22:39:05.762Z,65.01
2022-11-30T22:41:33.994Z,64.80
2022-11-30T22:44:02.531Z,64.86
2022-11-30T22:46:32.950Z,64.98
2022-11-30T22:49:03.020Z,65.00
2022-11-30T22:51:33.727Z,64.89
2022-11-30T22:54:02.244Z,64.92
2022-11-30T22:56:32.663Z,64.78
2022-11-30T22:59:01.716Z,64.29
2022-11-30T23:01:31.738Z,64.61
2022-11-30T23:04:03.838Z,64.75
2022-11-30T23:06:32.833Z,64.72
2022-11-30T23:09:01.563Z,64.73
2022-11-30T23:11:30.250Z,64.74
2022-11-30T23:13:58.645Z,64.45
2022-11-30T23:16:27.417Z,64.71
2022-11-30T23:18:56.739Z,64.70
2022-11-30T23:21:26.652Z,64.90
2022-11-30T23:23:57.099Z,64.72
2022-11-30T23:26:27.578Z,64.57
2022-11-30T23:28:59.322Z,64.87
2022-11-30T23:31:33.292Z,64.55
2022-11-30T23:34:05.981Z,64.81
2022-11-30T23:36:34.925Z,64.89
2022-11-30T23:39:05.963Z,64.87
2022-11-30T23:41:37.054Z,64.60
2022-11-30T23:44:06.947Z,64.55
2022-11-30T23:46:35.863Z,64.47
2022-11-30T23:49:04.548Z,64.44
2022-11-30T23:51:32.960Z,64.60
2022-11-30T23:54:01.301Z,64.65
2022-11-30T23:56:29.714Z,64.51
2022-11-30T23:58:58.655Z,64.39
